sensor_id;sensor_type;location;lat;lon;timestamp;P1;durP1;ratioP1;P2;durP2;ratioP2
14528;SDS011;7351;51.194;4.098;2023-02-28T00:01:05;2.90;;;2.70;;
14528;SDS011;7351;51.194;4.098;2023-02-28T00:03:32;2.50;;;2.30;;
14528;SDS011;7351;51.194;4.098;2023-02-28T00:06:00;3.07;;;2.87;;
14528;SDS011;7351;51.194;4.098;2023-02-28T00:08:28;2.67;;;2.47;;
14528;SDS011;7351;51.194;4.098;2023-02-28T00:10:59;2.63;;;2.43;;
14528;SDS011;7351;51.194;4.098;2023-02-28T00:13:27;4.73;;;2.70;;
14528;SDS011;7351;51.194;4.098;2023-02-28T00:16:01;3.13;;;2.73;;
14528;SDS011;7351;51.194;4.098;2023-02-28T00:18:29;2.70;;;2.50;;
14528;SDS011;7351;51.194;4.098;2023-02-28T00:20:56;2.83;;;2.60;;
14528;SDS011;7351;51.194;4.098;2023-02-28T00:23:23;2.70;;;2.50;;
14528;SDS011;7351;51.194;4.098;2023-02-28T00:25:50;4.13;;;3.73;;
14528;SDS011;7351;51.194;4.098;2023-02-28T00:28:19;3.37;;;3.10;;
14528;SDS011;7351;51.194;4.098;2023-02-28T00:30:47;3.17;;;2.53;;
14528;SDS011;7351;51.194;4.098;2023-02-28T00:33:14;2.97;;;2.70;;
14528;SDS011;7351;51.194;4.098;2023-02-28T00:35:41;3.80;;;3.30;;
14528;SDS011;7351;51.194;4.098;2023-02-28T00:38:11;3.10;;;2.90;;
14528;SDS011;7351;51.194;4.098;2023-02-28T00:40:38;3.50;;;3.20;;
14528;SDS011;7351;51.194;4.098;2023-02-28T00:43:05;3.00;;;2.80;;
14528;SDS011;7351;51.194;4.098;2023-02-28T00:45:33;3.13;;;2.83;;
14528;SDS011;7351;51.194;4.098;2023-02-28T00:48:00;3.23;;;3.00;;
14528;SDS011;7351;51.194;4.098;2023-02-28T00:50:29;3.00;;;2.80;;
14528;SDS011;7351;51.194;4.098;2023-02-28T00:52:56;3.53;;;3.23;;
14528;SDS011;7351;51.194;4.098;2023-02-28T00:55:22;3.30;;;3.10;;
14528;SDS011;7351;51.194;4.098;2023-02-28T00:57:49;3.10;;;2.87;;
14528;SDS011;7351;51.194;4.098;2023-02-28T01:00:17;3.53;;;3.23;;
14528;SDS011;7351;51.194;4.098;2023-02-28T01:02:45;3.90;;;3.60;;
14528;SDS011;7351;51.194;4.098;2023-02-28T01:05:12;3.37;;;3.10;;
14528;SDS011;7351;51.194;4.098;2023-02-28T01:07:39;2.87;;;2.67;;
14528;SDS011;7351;51.194;4.098;2023-02-28T01:10:07;3.40;;;3.10;;
14528;SDS011;7351;51.194;4.098;2023-02-28T01:12:35;5.67;;;2.87;;
14528;SDS011;7351;51.194;4.098;2023-02-28T01:15:02;3.50;;;3.23;;
14528;SDS011;7351;51.194;4.098;2023-02-28T01:17:29;3.60;;;3.30;;
14528;SDS011;7351;51.194;4.098;2023-02-28T01:19:57;3.53;;;3.23;;
14528;SDS011;7351;51.194;4.098;2023-02-28T01:22:24;2.90;;;2.70;;
14528;SDS011;7351;51.194;4.098;2023-02-28T01:24:51;3.43;;;3.23;;
14528;SDS011;7351;51.194;4.098;2023-02-28T01:27:19;3.17;;;2.97;;
14528;SDS011;7351;51.194;4.098;2023-02-28T01:29:46;2.93;;;2.73;;
14528;SDS011;7351;51.194;4.098;2023-02-28T01:32:13;3.07;;;2.87;;
14528;SDS011;7351;51.194;4.098;2023-02-28T01:34:40;3.47;;;3.20;;
14528;SDS011;7351;51.194;4.098;2023-02-28T01:37:08;2.93;;;2.70;;
14528;SDS011;7351;51.194;4.098;2023-02-28T01:39:35;3.53;;;3.27;;
14528;SDS011;7351;51.194;4.098;2023-02-28T01:42:02;4.07;;;3.07;;
14528;SDS011;7351;51.194;4.098;2023-02-28T01:47:23;3.77;;;3.47;;
14528;SDS011;7351;51.194;4.098;2023-02-28T01:49:54;3.03;;;2.83;;
14528;SDS011;7351;51.194;4.098;2023-02-28T01:52:24;3.33;;;3.00;;
14528;SDS011;7351;51.194;4.098;2023-02-28T01:54:52;3.67;;;3.40;;
14528;SDS011;7351;51.194;4.098;2023-02-28T01:57:21;3.27;;;3.00;;
14528;SDS011;7351;51.194;4.098;2023-02-28T01:59:54;3.13;;;2.83;;
14528;SDS011;7351;51.194;4.098;2023-02-28T02:02:26;3.30;;;3.10;;
14528;SDS011;7351;51.194;4.098;2023-02-28T02:04:55;3.40;;;3.10;;
14528;SDS011;7351;51.194;4.098;2023-02-28T02:07:27;3.00;;;2.80;;
14528;SDS011;7351;51.194;4.098;2023-02-28T02:10:01;3.37;;;3.10;;
14528;SDS011;7351;51.194;4.098;2023-02-28T02:12:33;3.67;;;3.37;;
14528;SDS011;7351;51.194;4.098;2023-02-28T02:15:12;3.53;;;3.23;;
14528;SDS011;7351;51.194;4.098;2023-02-28T02:17:43;3.53;;;3.33;;
14528;SDS011;7351;51.194;4.098;2023-02-28T02:20:32;3.30;;;3.07;;
14528;SDS011;7351;51.194;4.098;2023-02-28T02:26:27;3.30;;;2.97;;
14528;SDS011;7351;51.194;4.098;2023-02-28T02:29:12;4.23;;;3.90;;
14528;SDS011;7351;51.194;4.098;2023-02-28T02:35:30;3.60;;;3.30;;
14528;SDS011;7351;51.194;4.098;2023-02-28T02:38:03;3.60;;;3.30;;
14528;SDS011;7351;51.194;4.098;2023-02-28T02:40:35;4.13;;;3.83;;
14528;SDS011;7351;51.194;4.098;2023-02-28T02:43:08;3.90;;;3.60;;
14528;SDS011;7351;51.194;4.098;2023-02-28T02:45:42;4.33;;;3.93;;
14528;SDS011;7351;51.194;4.098;2023-02-28T02:48:13;4.00;;;3.70;;
14528;SDS011;7351;51.194;4.098;2023-02-28T02:50:46;3.37;;;3.17;;
14528;SDS011;7351;51.194;4.098;2023-02-28T02:53:17;3.40;;;3.13;;
14528;SDS011;7351;51.194;4.098;2023-02-28T02:55:48;4.30;;;3.90;;
14528;SDS011;7351;51.194;4.098;2023-02-28T02:58:20;3.57;;;3.27;;
14528;SDS011;7351;51.194;4.098;2023-02-28T03:00:52;3.93;;;3.63;;
14528;SDS011;7351;51.194;4.098;2023-02-28T03:03:23;4.00;;;3.70;;
14528;SDS011;7351;51.194;4.098;2023-02-28T03:05:56;4.17;;;3.90;;
14528;SDS011;7351;51.194;4.098;2023-02-28T03:08:25;4.10;;;3.80;;
14528;SDS011;7351;51.194;4.098;2023-02-28T03:10:55;4.13;;;3.73;;
14528;SDS011;7351;51.194;4.098;2023-02-28T03:13:33;4.00;;;3.70;;
14528;SDS011;7351;51.194;4.098;2023-02-28T03:16:17;4.70;;;4.30;;
14528;SDS011;7351;51.194;4.098;2023-02-28T03:18:57;3.73;;;3.43;;
14528;SDS011;7351;51.194;4.098;2023-02-28T03:22:03;3.73;;;3.43;;
14528;SDS011;7351;51.194;4.098;2023-02-28T03:24:41;3.80;;;3.37;;
14528;SDS011;7351;51.194;4.098;2023-02-28T03:27:14;3.43;;;3.13;;
14528;SDS011;7351;51.194;4.098;2023-02-28T03:29:49;4.40;;;4.00;;
14528;SDS011;7351;51.194;4.098;2023-02-28T03:32:23;4.50;;;4.07;;
14528;SDS011;7351;51.194;4.098;2023-02-28T03:34:55;4.10;;;3.60;;
14528;SDS011;7351;51.194;4.098;2023-02-28T03:37:30;3.97;;;3.67;;
14528;SDS011;7351;51.194;4.098;2023-02-28T03:40:04;5.87;;;4.03;;
14528;SDS011;7351;51.194;4.098;2023-02-28T03:42:37;4.30;;;3.93;;
14528;SDS011;7351;51.194;4.098;2023-02-28T03:45:09;3.97;;;3.60;;
14528;SDS011;7351;51.194;4.098;2023-02-28T03:47:39;4.93;;;4.40;;
14528;SDS011;7351;51.194;4.098;2023-02-28T03:50:12;4.03;;;3.73;;
14528;SDS011;7351;51.194;4.098;2023-02-28T03:52:46;3.93;;;3.63;;
14528;SDS011;7351;51.194;4.098;2023-02-28T03:55:16;5.27;;;3.83;;
14528;SDS011;7351;51.194;4.098;2023-02-28T03:57:47;4.60;;;4.00;;
14528;SDS011;7351;51.194;4.098;2023-02-28T04:00:25;3.87;;;3.57;;
14528;SDS011;7351;51.194;4.098;2023-02-28T04:02:56;3.87;;;3.43;;
14528;SDS011;7351;51.194;4.098;2023-02-28T04:05:23;4.10;;;3.70;;
14528;SDS011;7351;51.194;4.098;2023-02-28T04:07:52;4.23;;;3.93;;
14528;SDS011;7351;51.194;4.098;2023-02-28T04:10:19;4.13;;;3.83;;
14528;SDS011;7351;51.194;4.098;2023-02-28T04:12:46;4.60;;;4.30;;
14528;SDS011;7351;51.194;4.098;2023-02-28T04:15:13;4.53;;;4.23;;
14528;SDS011;7351;51.194;4.098;2023-02-28T04:17:40;4.90;;;4.27;;
14528;SDS011;7351;51.194;4.098;2023-02-28T04:20:08;4.03;;;3.73;;
14528;SDS011;7351;51.194;4.098;2023-02-28T04:22:36;3.93;;;3.60;;
14528;SDS011;7351;51.194;4.098;2023-02-28T04:25:05;4.37;;;4.07;;
14528;SDS011;7351;51.194;4.098;2023-02-28T04:27:33;4.60;;;4.30;;
14528;SDS011;7351;51.194;4.098;2023-02-28T04:30:00;3.60;;;3.40;;
14528;SDS011;7351;51.194;4.098;2023-02-28T04:32:27;4.47;;;4.03;;
14528;SDS011;7351;51.194;4.098;2023-02-28T04:34:54;3.73;;;3.43;;
14528;SDS011;7351;51.194;4.098;2023-02-28T04:37:21;4.43;;;4.13;;
14528;SDS011;7351;51.194;4.098;2023-02-28T04:39:52;5.20;;;4.70;;
14528;SDS011;7351;51.194;4.098;2023-02-28T04:42:21;3.67;;;3.37;;
14528;SDS011;7351;51.194;4.098;2023-02-28T04:44:48;4.10;;;3.50;;
14528;SDS011;7351;51.194;4.098;2023-02-28T04:47:15;4.77;;;3.77;;
14528;SDS011;7351;51.194;4.098;2023-02-28T04:49:42;4.70;;;4.30;;
14528;SDS011;7351;51.194;4.098;2023-02-28T04:52:09;4.27;;;3.87;;
14528;SDS011;7351;51.194;4.098;2023-02-28T04:54:38;4.90;;;4.60;;
14528;SDS011;7351;51.194;4.098;2023-02-28T04:57:05;3.93;;;3.73;;
14528;SDS011;7351;51.194;4.098;2023-02-28T04:59:33;4.43;;;4.03;;
14528;SDS011;7351;51.194;4.098;2023-02-28T05:02:00;4.50;;;4.10;;
14528;SDS011;7351;51.194;4.098;2023-02-28T05:04:31;4.73;;;4.33;;
14528;SDS011;7351;51.194;4.098;2023-02-28T05:06:59;4.43;;;4.03;;
14528;SDS011;7351;51.194;4.098;2023-02-28T05:09:26;4.73;;;4.23;;
14528;SDS011;7351;51.194;4.098;2023-02-28T05:11:53;7.57;;;4.43;;
14528;SDS011;7351;51.194;4.098;2023-02-28T05:14:20;5.10;;;3.87;;
14528;SDS011;7351;51.194;4.098;2023-02-28T05:16:48;3.83;;;3.47;;
14528;SDS011;7351;51.194;4.098;2023-02-28T05:19:15;4.93;;;4.23;;
14528;SDS011;7351;51.194;4.098;2023-02-28T05:21:48;6.17;;;3.60;;
14528;SDS011;7351;51.194;4.098;2023-02-28T05:24:16;5.13;;;3.53;;
14528;SDS011;7351;51.194;4.098;2023-02-28T05:26:48;6.77;;;4.07;;
14528;SDS011;7351;51.194;4.098;2023-02-28T05:29:16;7.40;;;3.83;;
14528;SDS011;7351;51.194;4.098;2023-02-28T05:31:43;6.63;;;3.73;;
14528;SDS011;7351;51.194;4.098;2023-02-28T05:34:11;4.57;;;3.27;;
14528;SDS011;7351;51.194;4.098;2023-02-28T05:36:40;9.90;;;4.20;;
14528;SDS011;7351;51.194;4.098;2023-02-28T05:39:07;8.57;;;3.97;;
14528;SDS011;7351;51.194;4.098;2023-02-28T05:41:38;5.43;;;4.30;;
14528;SDS011;7351;51.194;4.098;2023-02-28T05:44:06;3.87;;;3.33;;
14528;SDS011;7351;51.194;4.098;2023-02-28T05:46:33;4.90;;;3.43;;
14528;SDS011;7351;51.194;4.098;2023-02-28T05:49:00;5.57;;;2.97;;
14528;SDS011;7351;51.194;4.098;2023-02-28T05:51:28;5.33;;;3.70;;
14528;SDS011;7351;51.194;4.098;2023-02-28T05:53:58;4.03;;;3.67;;
14528;SDS011;7351;51.194;4.098;2023-02-28T05:56:26;4.33;;;3.30;;
14528;SDS011;7351;51.194;4.098;2023-02-28T05:58:53;3.77;;;3.43;;
14528;SDS011;7351;51.194;4.098;2023-02-28T06:01:22;9.80;;;3.47;;
14528;SDS011;7351;51.194;4.098;2023-02-28T06:03:51;6.57;;;4.57;;
14528;SDS011;7351;51.194;4.098;2023-02-28T06:06:18;4.03;;;3.63;;
14528;SDS011;7351;51.194;4.098;2023-02-28T06:08:46;5.53;;;4.37;;
14528;SDS011;7351;51.194;4.098;2023-02-28T06:11:13;3.73;;;3.43;;
14528;SDS011;7351;51.194;4.098;2023-02-28T06:13:40;3.67;;;2.77;;
14528;SDS011;7351;51.194;4.098;2023-02-28T06:16:08;7.07;;;3.53;;
14528;SDS011;7351;51.194;4.098;2023-02-28T06:18:36;4.20;;;3.77;;
14528;SDS011;7351;51.194;4.098;2023-02-28T06:21:03;3.93;;;3.63;;
14528;SDS011;7351;51.194;4.098;2023-02-28T06:23:30;4.13;;;3.60;;
14528;SDS011;7351;51.194;4.098;2023-02-28T06:25:59;5.17;;;4.47;;
14528;SDS011;7351;51.194;4.098;2023-02-28T06:28:27;4.03;;;3.67;;
14528;SDS011;7351;51.194;4.098;2023-02-28T06:30:54;4.57;;;3.57;;
14528;SDS011;7351;51.194;4.098;2023-02-28T06:33:20;3.90;;;3.57;;
14528;SDS011;7351;51.194;4.098;2023-02-28T06:35:49;3.73;;;3.20;;
14528;SDS011;7351;51.194;4.098;2023-02-28T06:38:17;5.13;;;4.10;;
14528;SDS011;7351;51.194;4.098;2023-02-28T06:40:44;3.60;;;3.30;;
14528;SDS011;7351;51.194;4.098;2023-02-28T06:43:20;4.00;;;3.63;;
14528;SDS011;7351;51.194;4.098;2023-02-28T06:45:47;4.10;;;3.07;;
14528;SDS011;7351;51.194;4.098;2023-02-28T06:48:14;4.97;;;3.93;;
14528;SDS011;7351;51.194;4.098;2023-02-28T06:50:41;4.33;;;3.93;;
14528;SDS011;7351;51.194;4.098;2023-02-28T06:53:08;4.03;;;3.50;;
14528;SDS011;7351;51.194;4.098;2023-02-28T06:55:34;3.50;;;3.23;;
14528;SDS011;7351;51.194;4.098;2023-02-28T06:58:04;4.00;;;3.63;;
14528;SDS011;7351;51.194;4.098;2023-02-28T07:00:41;5.60;;;4.63;;
14528;SDS011;7351;51.194;4.098;2023-02-28T07:03:08;4.60;;;3.47;;
14528;SDS011;7351;51.194;4.098;2023-02-28T07:05:36;5.40;;;4.20;;
14528;SDS011;7351;51.194;4.098;2023-02-28T07:08:03;4.03;;;3.73;;
14528;SDS011;7351;51.194;4.098;2023-02-28T07:10:31;4.87;;;3.80;;
14528;SDS011;7351;51.194;4.098;2023-02-28T07:12:59;6.07;;;3.43;;
14528;SDS011;7351;51.194;4.098;2023-02-28T07:15:26;5.53;;;4.20;;
14528;SDS011;7351;51.194;4.098;2023-02-28T07:17:54;4.53;;;4.13;;
14528;SDS011;7351;51.194;4.098;2023-02-28T07:20:21;3.97;;;3.57;;
14528;SDS011;7351;51.194;4.098;2023-02-28T07:22:49;4.33;;;4.03;;
14528;SDS011;7351;51.194;4.098;2023-02-28T07:25:21;4.67;;;3.53;;
14528;SDS011;7351;51.194;4.098;2023-02-28T07:27:48;6.80;;;3.80;;
14528;SDS011;7351;51.194;4.098;2023-02-28T07:30:16;7.33;;;4.37;;
14528;SDS011;7351;51.194;4.098;2023-02-28T07:32:43;4.27;;;3.97;;
14528;SDS011;7351;51.194;4.098;2023-02-28T07:35:11;6.93;;;4.30;;
14528;SDS011;7351;51.194;4.098;2023-02-28T07:37:40;6.27;;;3.80;;
14528;SDS011;7351;51.194;4.098;2023-02-28T07:40:08;9.10;;;4.33;;
14528;SDS011;7351;51.194;4.098;2023-02-28T07:42:37;9.67;;;4.77;;
14528;SDS011;7351;51.194;4.098;2023-02-28T07:45:06;5.00;;;3.77;;
14528;SDS011;7351;51.194;4.098;2023-02-28T07:47:36;9.30;;;4.47;;
14528;SDS011;7351;51.194;4.098;2023-02-28T07:50:04;6.17;;;4.00;;
14528;SDS011;7351;51.194;4.098;2023-02-28T07:52:32;12.03;;;4.87;;
14528;SDS011;7351;51.194;4.098;2023-02-28T07:54:59;5.87;;;4.20;;
14528;SDS011;7351;51.194;4.098;2023-02-28T07:57:26;7.87;;;4.60;;
14528;SDS011;7351;51.194;4.098;2023-02-28T07:59:53;6.83;;;3.90;;
14528;SDS011;7351;51.194;4.098;2023-02-28T08:02:20;6.17;;;4.80;;
14528;SDS011;7351;51.194;4.098;2023-02-28T08:04:47;6.47;;;4.07;;
14528;SDS011;7351;51.194;4.098;2023-02-28T08:07:15;6.03;;;4.43;;
14528;SDS011;7351;51.194;4.098;2023-02-28T08:09:44;5.70;;;4.10;;
14528;SDS011;7351;51.194;4.098;2023-02-28T08:12:11;4.53;;;4.23;;
14528;SDS011;7351;51.194;4.098;2023-02-28T08:14:38;5.77;;;4.37;;
14528;SDS011;7351;51.194;4.098;2023-02-28T08:17:05;3.70;;;3.40;;
14528;SDS011;7351;51.194;4.098;2023-02-28T08:19:32;5.40;;;4.17;;
14528;SDS011;7351;51.194;4.098;2023-02-28T08:21:59;3.27;;;3.07;;
14528;SDS011;7351;51.194;4.098;2023-02-28T08:24:26;6.27;;;4.27;;
14528;SDS011;7351;51.194;4.098;2023-02-28T08:26:55;4.93;;;3.33;;
14528;SDS011;7351;51.194;4.098;2023-02-28T08:29:22;3.67;;;3.33;;
14528;SDS011;7351;51.194;4.098;2023-02-28T08:31:49;4.33;;;3.90;;
14528;SDS011;7351;51.194;4.098;2023-02-28T08:34:16;6.87;;;3.73;;
14528;SDS011;7351;51.194;4.098;2023-02-28T08:36:43;3.93;;;3.40;;
14528;SDS011;7351;51.194;4.098;2023-02-28T08:39:10;5.40;;;3.60;;
14528;SDS011;7351;51.194;4.098;2023-02-28T08:41:37;6.63;;;3.87;;
14528;SDS011;7351;51.194;4.098;2023-02-28T08:44:06;6.90;;;3.67;;
14528;SDS011;7351;51.194;4.098;2023-02-28T08:46:33;2.97;;;2.77;;
14528;SDS011;7351;51.194;4.098;2023-02-28T08:49:00;7.63;;;4.10;;
14528;SDS011;7351;51.194;4.098;2023-02-28T08:51:27;4.80;;;3.77;;
14528;SDS011;7351;51.194;4.098;2023-02-28T08:53:55;3.53;;;3.13;;
14528;SDS011;7351;51.194;4.098;2023-02-28T08:56:25;3.90;;;3.60;;
14528;SDS011;7351;51.194;4.098;2023-02-28T08:58:54;3.77;;;3.33;;
14528;SDS011;7351;51.194;4.098;2023-02-28T09:01:24;5.63;;;3.30;;
14528;SDS011;7351;51.194;4.098;2023-02-28T09:03:53;4.10;;;3.53;;
14528;SDS011;7351;51.194;4.098;2023-02-28T09:06:21;3.70;;;2.67;;
14528;SDS011;7351;51.194;4.098;2023-02-28T09:08:50;6.63;;;3.27;;
14528;SDS011;7351;51.194;4.098;2023-02-28T09:11:18;12.37;;;5.10;;
14528;SDS011;7351;51.194;4.098;2023-02-28T09:13:45;6.67;;;5.07;;
14528;SDS011;7351;51.194;4.098;2023-02-28T09:16:13;5.87;;;4.63;;
14528;SDS011;7351;51.194;4.098;2023-02-28T09:18:43;7.80;;;4.20;;
14528;SDS011;7351;51.194;4.098;2023-02-28T09:21:11;6.70;;;4.87;;
14528;SDS011;7351;51.194;4.098;2023-02-28T09:23:40;9.87;;;6.53;;
14528;SDS011;7351;51.194;4.098;2023-02-28T09:26:07;8.37;;;6.57;;
14528;SDS011;7351;51.194;4.098;2023-02-28T09:28:39;7.17;;;6.43;;
14528;SDS011;7351;51.194;4.098;2023-02-28T09:31:06;7.53;;;5.87;;
14528;SDS011;7351;51.194;4.098;2023-02-28T09:33:33;11.43;;;6.83;;
14528;SDS011;7351;51.194;4.098;2023-02-28T09:36:02;9.67;;;7.23;;
14528;SDS011;7351;51.194;4.098;2023-02-28T09:38:29;8.57;;;7.50;;
14528;SDS011;7351;51.194;4.098;2023-02-28T09:40:57;10.67;;;7.43;;
14528;SDS011;7351;51.194;4.098;2023-02-28T09:43:28;11.03;;;7.23;;
14528;SDS011;7351;51.194;4.098;2023-02-28T09:46:00;8.70;;;6.67;;
14528;SDS011;7351;51.194;4.098;2023-02-28T09:48:34;10.87;;;7.07;;
14528;SDS011;7351;51.194;4.098;2023-02-28T09:54:04;7.77;;;5.37;;
14528;SDS011;7351;51.194;4.098;2023-02-28T09:56:33;9.97;;;5.70;;
14528;SDS011;7351;51.194;4.098;2023-02-28T09:59:05;9.03;;;5.50;;
14528;SDS011;7351;51.194;4.098;2023-02-28T10:01:42;6.33;;;5.40;;
14528;SDS011;7351;51.194;4.098;2023-02-28T10:04:16;6.30;;;5.30;;
14528;SDS011;7351;51.194;4.098;2023-02-28T10:06:58;8.40;;;4.97;;
14528;SDS011;7351;51.194;4.098;2023-02-28T10:09:29;6.53;;;5.17;;
14528;SDS011;7351;51.194;4.098;2023-02-28T10:12:00;8.80;;;4.30;;
14528;SDS011;7351;51.194;4.098;2023-02-28T10:14:32;6.07;;;4.67;;
14528;SDS011;7351;51.194;4.098;2023-02-28T10:17:02;5.80;;;4.70;;
14528;SDS011;7351;51.194;4.098;2023-02-28T10:19:34;5.57;;;4.20;;
14528;SDS011;7351;51.194;4.098;2023-02-28T10:22:13;5.00;;;3.27;;
14528;SDS011;7351;51.194;4.098;2023-02-28T10:24:44;7.17;;;3.70;;
14528;SDS011;7351;51.194;4.098;2023-02-28T10:27:13;5.47;;;3.87;;
14528;SDS011;7351;51.194;4.098;2023-02-28T10:29:42;8.80;;;3.97;;
14528;SDS011;7351;51.194;4.098;2023-02-28T10:32:12;5.17;;;3.20;;
14528;SDS011;7351;51.194;4.098;2023-02-28T10:34:42;5.13;;;4.30;;
14528;SDS011;7351;51.194;4.098;2023-02-28T10:37:11;8.50;;;3.73;;
14528;SDS011;7351;51.194;4.098;2023-02-28T10:39:41;5.83;;;3.10;;
14528;SDS011;7351;51.194;4.098;2023-02-28T10:42:22;10.37;;;4.17;;
14528;SDS011;7351;51.194;4.098;2023-02-28T10:47:39;6.20;;;3.43;;
14528;SDS011;7351;51.194;4.098;2023-02-28T10:50:27;9.20;;;3.23;;
14528;SDS011;7351;51.194;4.098;2023-02-28T10:53:04;4.70;;;3.10;;
14528;SDS011;7351;51.194;4.098;2023-02-28T10:55:40;6.43;;;3.27;;
14528;SDS011;7351;51.194;4.098;2023-02-28T10:58:17;5.63;;;3.17;;
14528;SDS011;7351;51.194;4.098;2023-02-28T11:00:47;5.47;;;2.60;;
14528;SDS011;7351;51.194;4.098;2023-02-28T11:03:23;4.37;;;3.13;;
14528;SDS011;7351;51.194;4.098;2023-02-28T11:05:52;10.27;;;3.47;;
14528;SDS011;7351;51.194;4.098;2023-02-28T11:08:20;10.80;;;2.90;;
14528;SDS011;7351;51.194;4.098;2023-02-28T11:10:47;4.30;;;2.50;;
14528;SDS011;7351;51.194;4.098;2023-02-28T11:13:20;7.73;;;2.87;;
14528;SDS011;7351;51.194;4.098;2023-02-28T11:15:52;12.73;;;3.20;;
14528;SDS011;7351;51.194;4.098;2023-02-28T11:18:22;4.23;;;2.47;;
14528;SDS011;7351;51.194;4.098;2023-02-28T11:20:54;4.40;;;2.60;;
14528;SDS011;7351;51.194;4.098;2023-02-28T11:23:24;7.57;;;2.93;;
14528;SDS011;7351;51.194;4.098;2023-02-28T11:25:54;8.50;;;3.10;;
14528;SDS011;7351;51.194;4.098;2023-02-28T11:28:25;8.43;;;3.40;;
14528;SDS011;7351;51.194;4.098;2023-02-28T11:31:01;8.07;;;2.77;;
14528;SDS011;7351;51.194;4.098;2023-02-28T11:33:31;4.97;;;2.73;;
14528;SDS011;7351;51.194;4.098;2023-02-28T11:36:09;12.70;;;2.93;;
14528;SDS011;7351;51.194;4.098;2023-02-28T11:38:40;6.70;;;2.57;;
14528;SDS011;7351;51.194;4.098;2023-02-28T11:41:14;6.03;;;2.77;;
14528;SDS011;7351;51.194;4.098;2023-02-28T11:43:54;6.53;;;2.17;;
14528;SDS011;7351;51.194;4.098;2023-02-28T11:46:41;5.87;;;2.50;;
14528;SDS011;7351;51.194;4.098;2023-02-28T11:49:17;3.17;;;2.40;;
14528;SDS011;7351;51.194;4.098;2023-02-28T11:51:57;4.57;;;2.50;;
14528;SDS011;7351;51.194;4.098;2023-02-28T11:54:39;4.83;;;2.40;;
14528;SDS011;7351;51.194;4.098;2023-02-28T11:57:33;2.77;;;1.80;;
14528;SDS011;7351;51.194;4.098;2023-02-28T12:00:11;3.30;;;2.10;;
14528;SDS011;7351;51.194;4.098;2023-02-28T12:02:54;3.53;;;2.00;;
14528;SDS011;7351;51.194;4.098;2023-02-28T12:05:30;7.17;;;2.23;;
14528;SDS011;7351;51.194;4.098;2023-02-28T12:08:06;3.17;;;1.57;;
14528;SDS011;7351;51.194;4.098;2023-02-28T12:10:44;4.20;;;2.20;;
14528;SDS011;7351;51.194;4.098;2023-02-28T12:13:25;2.83;;;1.83;;
14528;SDS011;7351;51.194;4.098;2023-02-28T12:18:59;6.30;;;1.87;;
14528;SDS011;7351;51.194;4.098;2023-02-28T12:27:48;4.23;;;1.90;;
14528;SDS011;7351;51.194;4.098;2023-02-28T12:30:19;4.67;;;2.00;;
14528;SDS011;7351;51.194;4.098;2023-02-28T12:32:50;3.87;;;2.00;;
14528;SDS011;7351;51.194;4.098;2023-02-28T12:35:21;1.83;;;1.50;;
14528;SDS011;7351;51.194;4.098;2023-02-28T12:37:52;3.97;;;1.83;;
14528;SDS011;7351;51.194;4.098;2023-02-28T12:40:25;4.07;;;2.00;;
14528;SDS011;7351;51.194;4.098;2023-02-28T12:43:10;2.40;;;1.70;;
14528;SDS011;7351;51.194;4.098;2023-02-28T12:45:43;2.13;;;1.67;;
14528;SDS011;7351;51.194;4.098;2023-02-28T12:48:14;3.63;;;1.80;;
14528;SDS011;7351;51.194;4.098;2023-02-28T12:50:46;3.17;;;1.83;;
14528;SDS011;7351;51.194;4.098;2023-02-28T12:53:15;3.50;;;2.07;;
14528;SDS011;7351;51.194;4.098;2023-02-28T12:55:48;3.33;;;2.10;;
14528;SDS011;7351;51.194;4.098;2023-02-28T12:58:26;4.47;;;2.27;;
14528;SDS011;7351;51.194;4.098;2023-02-28T13:01:03;2.80;;;1.60;;
14528;SDS011;7351;51.194;4.098;2023-02-28T13:04:14;4.10;;;1.73;;
14528;SDS011;7351;51.194;4.098;2023-02-28T13:07:07;2.10;;;1.37;;
14528;SDS011;7351;51.194;4.098;2023-02-28T13:09:40;2.27;;;1.57;;
14528;SDS011;7351;51.194;4.098;2023-02-28T13:12:12;2.83;;;1.70;;
14528;SDS011;7351;51.194;4.098;2023-02-28T13:14:41;3.23;;;1.83;;
14528;SDS011;7351;51.194;4.098;2023-02-28T13:17:11;2.03;;;1.67;;
14528;SDS011;7351;51.194;4.098;2023-02-28T13:19:45;2.10;;;1.70;;
14528;SDS011;7351;51.194;4.098;2023-02-28T13:22:36;1.73;;;1.60;;
14528;SDS011;7351;51.194;4.098;2023-02-28T13:28:08;5.50;;;2.00;;
14528;SDS011;7351;51.194;4.098;2023-02-28T13:33:28;4.03;;;1.80;;
14528;SDS011;7351;51.194;4.098;2023-02-28T13:38:52;4.60;;;2.17;;
14528;SDS011;7351;51.194;4.098;2023-02-28T13:44:10;4.00;;;1.43;;
14528;SDS011;7351;51.194;4.098;2023-02-28T13:49:40;2.73;;;1.80;;
14528;SDS011;7351;51.194;4.098;2023-02-28T13:52:09;2.10;;;1.63;;
14528;SDS011;7351;51.194;4.098;2023-02-28T13:54:44;4.60;;;2.00;;
14528;SDS011;7351;51.194;4.098;2023-02-28T13:57:29;2.67;;;1.23;;
14528;SDS011;7351;51.194;4.098;2023-02-28T14:00:13;1.90;;;1.40;;
14528;SDS011;7351;51.194;4.098;2023-02-28T14:02:55;3.63;;;1.93;;
14528;SDS011;7351;51.194;4.098;2023-02-28T14:05:41;2.57;;;2.13;;
14528;SDS011;7351;51.194;4.098;2023-02-28T14:08:11;2.70;;;1.60;;
14528;SDS011;7351;51.194;4.098;2023-02-28T14:10:48;5.07;;;1.63;;
14528;SDS011;7351;51.194;4.098;2023-02-28T14:13:39;7.80;;;1.93;;
14528;SDS011;7351;51.194;4.098;2023-02-28T14:16:11;3.07;;;1.90;;
14528;SDS011;7351;51.194;4.098;2023-02-28T14:18:40;1.50;;;1.40;;
14528;SDS011;7351;51.194;4.098;2023-02-28T14:21:16;4.50;;;1.83;;
14528;SDS011;7351;51.194;4.098;2023-02-28T14:24:01;4.57;;;1.83;;
14528;SDS011;7351;51.194;4.098;2023-02-28T14:26:49;1.50;;;1.40;;
14528;SDS011;7351;51.194;4.098;2023-02-28T14:29:34;3.53;;;1.97;;
14528;SDS011;7351;51.194;4.098;2023-02-28T14:32:11;2.77;;;1.57;;
14528;SDS011;7351;51.194;4.098;2023-02-28T14:34:47;3.27;;;1.80;;
14528;SDS011;7351;51.194;4.098;2023-02-28T14:37:20;2.23;;;1.73;;
14528;SDS011;7351;51.194;4.098;2023-02-28T14:39:53;2.33;;;1.90;;
14528;SDS011;7351;51.194;4.098;2023-02-28T14:42:28;4.07;;;1.77;;
14528;SDS011;7351;51.194;4.098;2023-02-28T14:44:57;5.17;;;2.27;;
14528;SDS011;7351;51.194;4.098;2023-02-28T14:47:25;1.90;;;1.80;;
14528;SDS011;7351;51.194;4.098;2023-02-28T14:49:54;1.60;;;1.50;;
14528;SDS011;7351;51.194;4.098;2023-02-28T14:52:23;2.43;;;1.90;;
14528;SDS011;7351;51.194;4.098;2023-02-28T14:54:52;3.17;;;1.53;;
14528;SDS011;7351;51.194;4.098;2023-02-28T14:57:22;4.80;;;2.00;;
14528;SDS011;7351;51.194;4.098;2023-02-28T14:59:57;2.30;;;2.10;;
14528;SDS011;7351;51.194;4.098;2023-02-28T15:02:30;3.60;;;2.30;;
14528;SDS011;7351;51.194;4.098;2023-02-28T15:04:58;4.50;;;1.90;;
14528;SDS011;7351;51.194;4.098;2023-02-28T15:07:28;3.37;;;2.13;;
14528;SDS011;7351;51.194;4.098;2023-02-28T15:10:08;2.17;;;1.77;;
14528;SDS011;7351;51.194;4.098;2023-02-28T15:12:37;3.73;;;2.50;;
14528;SDS011;7351;51.194;4.098;2023-02-28T15:15:13;6.37;;;3.00;;
14528;SDS011;7351;51.194;4.098;2023-02-28T15:17:41;7.17;;;2.80;;
14528;SDS011;7351;51.194;4.098;2023-02-28T15:20:12;4.90;;;2.40;;
14528;SDS011;7351;51.194;4.098;2023-02-28T15:22:42;3.77;;;2.53;;
14528;SDS011;7351;51.194;4.098;2023-02-28T15:25:12;3.87;;;2.57;;
14528;SDS011;7351;51.194;4.098;2023-02-28T15:27:42;3.00;;;2.80;;
14528;SDS011;7351;51.194;4.098;2023-02-28T15:30:14;5.23;;;2.83;;
14528;SDS011;7351;51.194;4.098;2023-02-28T15:32:43;3.20;;;2.57;;
14528;SDS011;7351;51.194;4.098;2023-02-28T15:35:17;7.40;;;2.80;;
14528;SDS011;7351;51.194;4.098;2023-02-28T15:37:48;6.83;;;2.87;;
14528;SDS011;7351;51.194;4.098;2023-02-28T15:40:22;5.00;;;2.17;;
14528;SDS011;7351;51.194;4.098;2023-02-28T15:43:00;8.57;;;2.73;;
14528;SDS011;7351;51.194;4.098;2023-02-28T15:45:37;8.47;;;2.70;;
14528;SDS011;7351;51.194;4.098;2023-02-28T15:48:13;4.80;;;3.17;;
14528;SDS011;7351;51.194;4.098;2023-02-28T15:50:43;4.23;;;2.83;;
14528;SDS011;7351;51.194;4.098;2023-02-28T15:53:15;6.57;;;2.53;;
14528;SDS011;7351;51.194;4.098;2023-02-28T15:55:45;4.47;;;2.50;;
14528;SDS011;7351;51.194;4.098;2023-02-28T15:58:23;7.93;;;2.37;;
14528;SDS011;7351;51.194;4.098;2023-02-28T16:01:05;10.60;;;2.73;;
14528;SDS011;7351;51.194;4.098;2023-02-28T16:03:40;5.57;;;2.20;;